createdAt,value
2019-01-18T00:01:22.017Z,24.84
2019-01-18T00:03:51.807Z,24.89
2019-01-18T00:06:21.496Z,24.97
2019-01-18T00:08:51.117Z,24.91
2019-01-18T00:11:20.730Z,24.95
2019-01-18T00:13:51.263Z,24.91
2019-01-18T00:16:20.765Z,24.84
2019-01-18T00:18:50.473Z,24.78
2019-01-18T00:21:20.088Z,24.87
2019-01-18T00:23:49.687Z,24.90
2019-01-18T00:26:19.305Z,24.93
2019-01-18T00:28:49.114Z,24.89
2019-01-18T00:31:18.835Z,24.92
2019-01-18T00:33:48.534Z,24.96
2019-01-18T00:36:18.249Z,24.93
2019-01-18T00:38:47.850Z,24.94
2019-01-18T00:41:17.572Z,24.95
2019-01-18T00:43:47.062Z,24.96
2019-01-18T00:46:16.705Z,24.89
2019-01-18T00:48:47.387Z,24.97
2019-01-18T00:51:17.032Z,24.90
2019-01-18T00:53:46.521Z,24.93
2019-01-18T00:56:16.142Z,24.89
2019-01-18T00:58:45.784Z,24.89
2019-01-18T01:01:15.467Z,24.88
2019-01-18T01:03:45.062Z,24.92
2019-01-18T01:06:14.702Z,24.89
2019-01-18T01:08:44.488Z,24.87
2019-01-18T01:11:14.137Z,24.88
2019-01-18T01:13:43.811Z,24.92
2019-01-18T01:16:13.450Z,24.90
2019-01-18T01:18:43.230Z,24.89
2019-01-18T01:21:12.882Z,24.84
2019-01-18T01:23:42.554Z,24.90
2019-01-18T01:26:12.301Z,24.85
2019-01-18T01:28:41.971Z,24.87
2019-01-18T01:31:11.698Z,24.90
2019-01-18T01:33:41.318Z,24.89
2019-01-18T01:36:11.011Z,24.84
2019-01-18T01:38:40.635Z,24.81
2019-01-18T01:41:10.469Z,24.83
2019-01-18T01:43:40.049Z,24.79
2019-01-18T01:46:09.832Z,24.82
2019-01-18T01:48:39.561Z,24.83
2019-01-18T01:51:09.125Z,24.88
2019-01-18T01:53:38.978Z,24.82
2019-01-18T01:56:08.615Z,24.81
2019-01-18T01:58:38.320Z,24.83
2019-01-18T02:01:08.036Z,24.81
2019-01-18T02:03:38.591Z,24.82
2019-01-18T02:06:08.270Z,24.78
2019-01-18T02:08:37.954Z,24.80
2019-01-18T02:11:07.585Z,24.78
2019-01-18T02:13:37.309Z,24.73
2019-01-18T02:16:07.012Z,24.75
2019-01-18T02:18:36.701Z,24.77
2019-01-18T02:21:06.341Z,24.80
2019-01-18T02:23:36.047Z,24.79
2019-01-18T02:26:05.669Z,24.71
2019-01-18T02:28:35.339Z,24.76
2019-01-18T02:31:04.879Z,24.81
2019-01-18T02:33:34.557Z,24.78
2019-01-18T02:36:04.299Z,24.76
2019-01-18T02:38:33.909Z,24.79
2019-01-18T02:41:03.599Z,24.76
2019-01-18T02:43:33.222Z,24.74
2019-01-18T02:46:02.917Z,24.77
2019-01-18T02:48:32.537Z,24.79
2019-01-18T02:51:02.315Z,24.76
2019-01-18T02:53:32.050Z,24.71
2019-01-18T02:56:01.757Z,24.71
2019-01-18T02:58:31.480Z,24.74
2019-01-18T03:01:01.100Z,24.70
2019-01-18T03:03:30.781Z,24.73
2019-01-18T03:06:00.426Z,24.71
2019-01-18T03:08:30.102Z,24.68
2019-01-18T03:10:59.776Z,24.73
2019-01-18T03:13:29.415Z,24.63
2019-01-18T03:15:59.151Z,24.71
2019-01-18T03:18:28.840Z,24.75
2019-01-18T03:20:58.563Z,24.71
2019-01-18T03:23:28.094Z,24.73
2019-01-18T03:25:57.795Z,24.69
2019-01-18T03:28:27.404Z,24.67
2019-01-18T03:30:57.094Z,24.65
2019-01-18T03:33:26.712Z,24.70
2019-01-18T03:35:56.524Z,24.69
2019-01-18T03:38:26.227Z,24.69
2019-01-18T03:40:55.873Z,24.72
2019-01-18T03:43:25.678Z,24.62
2019-01-18T03:45:55.364Z,24.68
2019-01-18T03:48:25.009Z,24.68
2019-01-18T03:50:54.667Z,24.67
2019-01-18T03:53:24.336Z,24.66
2019-01-18T03:55:53.997Z,24.67
2019-01-18T03:58:23.717Z,24.68
2019-01-18T04:00:53.413Z,24.68
2019-01-18T04:03:23.019Z,24.69
2019-01-18T04:05:52.639Z,24.68
2019-01-18T04:08:22.245Z,24.65
2019-01-18T04:10:51.933Z,24.63
2019-01-18T04:13:21.563Z,24.66
2019-01-18T04:15:51.167Z,24.68
2019-01-18T04:18:20.769Z,24.65
2019-01-18T04:20:50.492Z,24.61
2019-01-18T04:23:20.157Z,24.61
2019-01-18T04:25:49.699Z,24.60
2019-01-18T04:28:19.426Z,24.61
2019-01-18T04:30:48.975Z,24.60
2019-01-18T04:33:18.525Z,24.60
2019-01-18T04:35:48.127Z,24.61
2019-01-18T04:38:17.717Z,24.64
2019-01-18T04:40:47.237Z,24.61
2019-01-18T04:43:16.743Z,24.62
2019-01-18T04:45:46.468Z,24.62
2019-01-18T04:48:16.213Z,24.58
2019-01-18T04:50:45.733Z,24.61
2019-01-18T04:53:15.296Z,24.60
2019-01-18T04:55:44.868Z,24.56
2019-01-18T04:58:14.405Z,24.62
2019-01-18T05:00:43.902Z,24.53
2019-01-18T05:03:13.495Z,24.57
2019-01-18T05:05:43.231Z,24.56
2019-01-18T05:08:12.738Z,24.54
2019-01-18T05:10:42.193Z,24.56
2019-01-18T05:13:11.855Z,24.46
2019-01-18T05:15:41.461Z,24.52
2019-01-18T05:18:10.947Z,24.53
2019-01-18T05:20:40.461Z,24.59
2019-01-18T05:23:10.262Z,24.61
2019-01-18T05:25:39.890Z,24.55
2019-01-18T05:28:09.504Z,24.59
2019-01-18T05:30:39.094Z,24.49
2019-01-18T05:33:08.839Z,24.64
2019-01-18T05:35:38.468Z,24.61
2019-01-18T05:38:08.153Z,24.59
2019-01-18T05:40:37.748Z,24.58
2019-01-18T05:43:07.358Z,24.52
2019-01-18T05:45:37.073Z,24.53
2019-01-18T05:48:06.578Z,24.50
2019-01-18T05:50:36.183Z,24.54
2019-01-18T05:53:07.120Z,24.52
2019-01-18T05:55:36.687Z,24.52
2019-01-18T05:58:06.325Z,24.51
2019-01-18T06:01:04.836Z,24.54
2019-01-18T06:03:34.332Z,24.52
2019-01-18T06:06:03.813Z,24.34
2019-01-18T06:08:33.452Z,23.86
2019-01-18T06:11:03.051Z,23.62
2019-01-18T06:13:32.533Z,23.24
2019-01-18T06:16:02.066Z,23.20
2019-01-18T06:18:31.448Z,22.92
2019-01-18T06:21:00.980Z,22.84
2019-01-18T06:23:30.581Z,22.72
2019-01-18T06:26:00.302Z,22.72
2019-01-18T06:28:29.917Z,22.93
2019-01-18T06:31:01.789Z,23.07
2019-01-18T06:33:30.864Z,23.23
2019-01-18T06:36:00.395Z,23.35
2019-01-18T06:38:30.092Z,23.33
2019-01-18T06:41:08.502Z,23.42
2019-01-18T06:43:39.557Z,23.39
2019-01-18T06:46:09.241Z,23.43
2019-01-18T06:48:39.436Z,23.52
2019-01-18T06:51:09.076Z,23.66
2019-01-18T06:53:38.693Z,23.67
2019-01-18T06:56:08.225Z,23.74
2019-01-18T06:58:37.843Z,23.77
2019-01-18T07:01:08.541Z,23.83
2019-01-18T07:03:38.354Z,23.81
2019-01-18T07:06:07.918Z,23.88
2019-01-18T07:08:37.558Z,23.85
2019-01-18T07:11:07.075Z,23.85
2019-01-18T07:13:36.657Z,23.87
2019-01-18T07:16:06.272Z,23.91
2019-01-18T07:18:35.802Z,23.90
2019-01-18T07:21:05.384Z,23.93
2019-01-18T07:23:35.132Z,23.96
2019-01-18T07:26:04.838Z,23.98
2019-01-18T07:28:34.438Z,23.96
2019-01-18T07:31:04.143Z,23.97
2019-01-18T07:33:33.768Z,23.97
2019-01-18T07:36:03.465Z,24.04
2019-01-18T07:38:33.067Z,24.00
2019-01-18T07:41:02.576Z,23.97
2019-01-18T07:43:32.306Z,24.04
2019-01-18T07:46:01.885Z,24.08
2019-01-18T07:48:31.416Z,24.05
2019-01-18T07:51:01.219Z,24.02
2019-01-18T07:53:30.852Z,24.01
2019-01-18T07:56:00.541Z,23.98
2019-01-18T07:58:30.137Z,23.98
2019-01-18T08:00:59.752Z,24.01
2019-01-18T08:03:29.567Z,24.03
2019-01-18T08:05:59.195Z,24.06
2019-01-18T08:08:29.003Z,24.08
2019-01-18T08:10:58.608Z,24.05
2019-01-18T08:13:28.415Z,24.10
2019-01-18T08:15:58.039Z,24.06
2019-01-18T08:18:27.809Z,24.14
2019-01-18T08:20:57.455Z,24.14
2019-01-18T08:23:27.053Z,24.09
2019-01-18T08:25:56.974Z,24.09
2019-01-18T08:28:26.587Z,24.10
2019-01-18T08:30:56.402Z,24.10
2019-01-18T08:33:26.096Z,24.09
2019-01-18T08:35:55.814Z,24.08
2019-01-18T08:38:25.529Z,24.10
2019-01-18T08:40:55.241Z,24.06
2019-01-18T08:43:24.942Z,24.05
2019-01-18T08:46:00.210Z,24.09
2019-01-18T08:48:29.901Z,24.10
2019-01-18T08:50:59.610Z,24.11
2019-01-18T08:53:29.109Z,24.11
2019-01-18T08:55:58.633Z,24.07
2019-01-18T08:58:28.325Z,24.11
2019-01-18T09:00:57.994Z,24.09
2019-01-18T09:03:27.654Z,24.06
2019-01-18T09:05:57.287Z,24.07
2019-01-18T09:08:27.136Z,24.03
2019-01-18T09:10:56.791Z,24.04
2019-01-18T09:13:26.345Z,24.04
2019-01-18T09:15:55.906Z,24.12
2019-01-18T09:18:25.500Z,24.18
2019-01-18T09:20:55.083Z,24.13
2019-01-18T09:23:24.615Z,24.17
2019-01-18T09:25:54.029Z,24.13
2019-01-18T09:28:23.587Z,24.11
2019-01-18T09:30:53.240Z,24.16
2019-01-18T09:33:22.742Z,24.15
2019-01-18T09:35:52.219Z,24.12
2019-01-18T09:38:21.847Z,24.18
2019-01-18T09:40:51.586Z,24.10
2019-01-18T09:43:21.166Z,24.09
2019-01-18T09:45:50.981Z,24.18
2019-01-18T09:48:20.603Z,24.17
2019-01-18T09:50:50.216Z,24.14
2019-01-18T09:53:19.934Z,24.20
2019-01-18T09:55:49.641Z,24.20
2019-01-18T09:58:19.152Z,24.15
2019-01-18T10:00:48.749Z,24.12
2019-01-18T10:03:18.459Z,24.10
2019-01-18T10:05:48.105Z,24.15
2019-01-18T10:08:17.783Z,24.13
2019-01-18T10:10:47.599Z,24.14
2019-01-18T10:13:17.285Z,24.16
2019-01-18T10:15:47.847Z,24.17
2019-01-18T10:18:18.570Z,24.21
2019-01-18T10:20:48.188Z,24.20
2019-01-18T10:23:17.832Z,24.18
2019-01-18T10:25:47.467Z,24.16
2019-01-18T10:28:16.998Z,24.18
2019-01-18T10:30:46.614Z,24.17
2019-01-18T10:33:16.313Z,24.16
2019-01-18T10:35:46.039Z,24.15
2019-01-18T10:38:15.736Z,24.17
2019-01-18T10:40:45.355Z,24.21
2019-01-18T10:43:15.059Z,24.22
2019-01-18T10:45:44.680Z,24.20
2019-01-18T10:48:14.281Z,24.20
2019-01-18T10:50:43.896Z,24.22
2019-01-18T10:53:13.597Z,24.20
2019-01-18T10:55:43.346Z,24.20
2019-01-18T10:58:12.910Z,24.18
2019-01-18T11:00:42.526Z,24.18
2019-01-18T11:03:12.126Z,24.05
2019-01-18T11:05:41.862Z,23.94
2019-01-18T11:08:17.290Z,23.84
2019-01-18T11:10:42.713Z,23.91
2019-01-18T11:13:12.306Z,24.01
2019-01-18T11:15:41.914Z,24.07
2019-01-18T11:18:11.527Z,24.12
2019-01-18T11:21:06.151Z,24.17
2019-01-18T11:23:35.826Z,24.22
2019-01-18T11:26:05.487Z,24.19
2019-01-18T11:28:35.148Z,24.19
2019-01-18T11:31:04.763Z,24.24
2019-01-18T11:33:34.467Z,24.29
2019-01-18T11:36:04.365Z,24.36
2019-01-18T11:38:34.030Z,24.36
2019-01-18T11:41:03.722Z,24.42
2019-01-18T11:43:33.329Z,24.42
2019-01-18T11:46:03.055Z,24.40
2019-01-18T11:48:32.632Z,24.37
2019-01-18T11:51:02.035Z,24.42
2019-01-18T11:53:31.636Z,24.40
2019-01-18T11:56:01.198Z,24.41
2019-01-18T11:58:30.761Z,24.42
2019-01-18T12:01:00.298Z,24.48
2019-01-18T12:03:29.880Z,24.49
2019-01-18T12:05:59.474Z,24.55
2019-01-18T12:08:30.086Z,24.62
2019-01-18T12:10:59.620Z,24.65
2019-01-18T12:13:29.335Z,24.71
2019-01-18T12:15:59.043Z,24.71
2019-01-18T12:18:28.759Z,24.72
2019-01-18T12:20:58.355Z,24.76
2019-01-18T12:23:27.992Z,24.76
2019-01-18T12:25:57.675Z,24.87
2019-01-18T12:28:27.189Z,24.90
2019-01-18T12:30:57.000Z,24.94
2019-01-18T12:33:26.602Z,24.95
2019-01-18T12:35:56.214Z,24.93
2019-01-18T12:38:25.942Z,24.88
2019-01-18T12:40:55.528Z,24.95
2019-01-18T12:43:25.145Z,24.97
2019-01-18T12:45:54.640Z,25.00
2019-01-18T12:48:24.378Z,25.02
2019-01-18T12:50:54.061Z,25.02
2019-01-18T12:53:23.583Z,25.03
2019-01-18T12:55:53.106Z,24.97
2019-01-18T13:00:51.287Z,25.00
2019-01-18T13:03:20.859Z,25.00
2019-01-18T13:05:52.292Z,25.00
2019-01-18T13:08:21.873Z,25.03
2019-01-18T13:10:51.588Z,25.09
2019-01-18T13:13:21.178Z,25.11
2019-01-18T13:16:16.879Z,25.12
2019-01-18T13:18:49.218Z,25.12
2019-01-18T13:21:18.858Z,25.07
2019-01-18T13:23:48.354Z,25.09
2019-01-18T13:26:18.079Z,25.07
2019-01-18T13:28:47.522Z,25.01
2019-01-18T13:31:17.078Z,25.02
2019-01-18T13:33:46.710Z,24.99
2019-01-18T13:36:16.325Z,24.99
2019-01-18T13:38:46.131Z,25.01
2019-01-18T13:41:15.762Z,25.04
2019-01-18T13:43:45.343Z,25.02
2019-01-18T13:46:15.050Z,25.00
2019-01-18T13:48:44.693Z,25.04
2019-01-18T13:51:14.475Z,24.98
2019-01-18T13:53:43.978Z,25.06
2019-01-18T13:56:13.619Z,25.01
2019-01-18T13:58:43.192Z,25.04
2019-01-18T14:01:12.649Z,25.05
2019-01-18T14:03:42.313Z,25.04
2019-01-18T14:06:11.936Z,25.06
2019-01-18T14:08:41.632Z,25.09
2019-01-18T14:11:16.936Z,25.07
2019-01-18T14:13:46.511Z,25.00
2019-01-18T14:16:16.187Z,25.03
2019-01-18T14:18:45.801Z,25.10
2019-01-18T14:21:15.401Z,25.03
2019-01-18T14:23:44.815Z,25.13
2019-01-18T14:26:14.414Z,25.05
2019-01-18T14:28:43.929Z,25.11
2019-01-18T14:31:13.731Z,25.08
2019-01-18T14:33:43.252Z,25.07
2019-01-18T14:36:14.671Z,24.90
2019-01-18T14:38:44.204Z,25.02
2019-01-18T14:41:15.766Z,24.98
2019-01-18T14:43:45.169Z,24.97
2019-01-18T14:46:14.810Z,25.01
2019-01-18T14:48:44.272Z,24.94
2019-01-18T14:51:13.963Z,24.93
2019-01-18T14:53:43.601Z,24.98
2019-01-18T14:56:13.318Z,24.89
2019-01-18T14:58:42.914Z,24.91
2019-01-18T15:01:12.406Z,24.81
2019-01-18T15:03:41.992Z,24.79
2019-01-18T15:06:11.811Z,24.71
2019-01-18T15:08:41.452Z,24.78
2019-01-18T15:11:11.165Z,24.80
2019-01-18T15:13:40.762Z,24.81
2019-01-18T15:16:10.341Z,24.88
2019-01-18T15:18:40.200Z,24.65
2019-01-18T15:21:09.781Z,24.75
2019-01-18T15:23:39.594Z,24.85
2019-01-18T15:26:09.206Z,24.81
2019-01-18T15:28:38.822Z,24.77
2019-01-18T15:31:08.436Z,24.82
2019-01-18T15:33:38.046Z,24.82
2019-01-18T15:36:08.022Z,24.82
2019-01-18T15:38:37.572Z,24.81
2019-01-18T15:41:07.406Z,24.81
2019-01-18T15:43:37.022Z,24.76
2019-01-18T15:46:06.591Z,24.82
2019-01-18T15:48:36.237Z,24.83
2019-01-18T15:51:06.130Z,24.79
2019-01-18T15:53:35.693Z,24.87
2019-01-18T15:56:05.334Z,24.81
2019-01-18T15:58:35.061Z,24.81
2019-01-18T16:01:04.638Z,24.71
2019-01-18T16:03:34.375Z,24.63
2019-01-18T16:06:03.964Z,24.73
2019-01-18T16:08:33.670Z,24.70
2019-01-18T16:11:03.294Z,24.67
2019-01-18T16:13:33.005Z,24.71
2019-01-18T16:16:18.594Z,24.64
2019-01-18T16:18:48.101Z,24.57
2019-01-18T16:21:17.815Z,24.63
2019-01-18T16:23:47.157Z,24.58
2019-01-18T16:26:16.815Z,24.58
2019-01-18T16:28:46.558Z,24.57
2019-01-18T16:31:16.134Z,24.62
2019-01-18T16:33:45.745Z,24.61
2019-01-18T16:36:15.367Z,24.64
2019-01-18T16:38:44.857Z,24.60
2019-01-18T16:41:14.495Z,24.62
2019-01-18T16:43:46.037Z,24.57
2019-01-18T16:46:15.591Z,24.61
2019-01-18T16:48:45.461Z,24.55
2019-01-18T16:51:15.089Z,24.59
2019-01-18T16:53:44.660Z,24.56
2019-01-18T16:56:14.273Z,24.50
2019-01-18T16:58:43.894Z,24.57
2019-01-18T17:01:13.597Z,24.59
2019-01-18T17:03:43.201Z,24.50
2019-01-18T17:06:12.970Z,24.45
2019-01-18T17:08:42.617Z,24.52
2019-01-18T17:11:12.128Z,24.49
2019-01-18T17:13:42.573Z,24.49
2019-01-18T17:16:12.269Z,24.36
2019-01-18T17:18:42.047Z,24.43
2019-01-18T17:21:11.621Z,24.53
2019-01-18T17:23:41.189Z,24.56
2019-01-18T17:26:10.806Z,24.54
2019-01-18T17:28:40.420Z,24.53
2019-01-18T17:31:09.929Z,24.56
2019-01-18T17:33:39.485Z,24.52
2019-01-18T17:36:31.665Z,24.69
2019-01-18T17:39:39.270Z,24.61
2019-01-18T17:43:10.933Z,24.67
2019-01-18T17:46:20.995Z,24.71
2019-01-18T17:49:37.087Z,24.67
2019-01-18T17:52:25.559Z,24.64
2019-01-18T17:55:36.815Z,24.65
2019-01-18T17:58:48.939Z,24.70
2019-01-18T18:01:46.865Z,24.75
2019-01-18T18:04:31.770Z,24.69
2019-01-18T18:07:16.522Z,24.69
2019-01-18T18:10:05.701Z,24.70
2019-01-18T18:13:15.213Z,24.62
2019-01-18T18:16:27.766Z,24.59
2019-01-18T18:19:49.433Z,24.61
2019-01-18T18:22:54.627Z,24.67
2019-01-18T18:25:59.823Z,24.65
2019-01-18T18:29:31.734Z,24.70
2019-01-18T18:32:54.600Z,24.66
2019-01-18T18:36:10.905Z,24.56
2019-01-18T18:39:21.195Z,24.62
2019-01-18T18:42:44.346Z,24.67
2019-01-18T18:45:53.674Z,24.67
2019-01-18T18:48:51.308Z,24.72
2019-01-18T18:51:52.889Z,24.73
2019-01-18T18:55:12.547Z,24.65
2019-01-18T18:58:13.964Z,24.76
2019-01-18T19:01:13.549Z,24.75
2019-01-18T19:04:07.756Z,24.74
2019-01-18T19:07:02.642Z,24.77
2019-01-18T19:10:14.873Z,24.77
2019-01-18T19:13:05.354Z,24.75
2019-01-18T19:16:16.248Z,24.74
2019-01-18T19:19:13.072Z,24.71
2019-01-18T19:22:14.168Z,24.75
2019-01-18T19:25:30.938Z,24.76
2019-01-18T19:28:59.344Z,24.74
2019-01-18T19:31:50.848Z,24.75
2019-01-18T19:34:47.980Z,24.76
2019-01-18T19:37:58.554Z,24.74
2019-01-18T19:41:00.514Z,24.75
2019-01-18T19:43:50.196Z,24.75
2019-01-18T19:46:54.110Z,24.79
2019-01-18T19:49:55.870Z,24.79
2019-01-18T19:53:16.778Z,24.81
2019-01-18T19:56:15.127Z,24.76
2019-01-18T19:59:40.590Z,24.72
2019-01-18T20:02:23.915Z,24.72
2019-01-18T20:05:30.583Z,24.76
2019-01-18T20:08:21.817Z,24.68
2019-01-18T20:11:19.058Z,24.75
2019-01-18T20:14:06.505Z,24.77
2019-01-18T20:16:56.476Z,24.79
2019-01-18T20:20:12.677Z,24.75
2019-01-18T20:23:38.402Z,24.78
2019-01-18T20:26:25.935Z,24.79
2019-01-18T20:29:41.625Z,24.76
2019-01-18T20:32:40.929Z,24.72
2019-01-18T20:35:38.299Z,24.76
2019-01-18T20:38:43.838Z,24.74
2019-01-18T20:41:46.310Z,24.76
2019-01-18T20:45:00.586Z,24.70
2019-01-18T20:48:00.047Z,24.70
2019-01-18T20:51:22.567Z,24.75
2019-01-18T20:54:19.796Z,24.76
2019-01-18T20:57:14.686Z,24.73
2019-01-18T21:00:24.748Z,24.71
2019-01-18T21:03:56.748Z,24.69
2019-01-18T21:07:08.547Z,24.67
2019-01-18T21:10:25.062Z,24.65
2019-01-18T21:13:10.085Z,24.67
2019-01-18T21:16:21.962Z,24.66
2019-01-18T21:19:12.901Z,24.64
2019-01-18T21:22:25.041Z,24.65
2019-01-18T21:25:20.106Z,24.68
2019-01-18T21:28:16.085Z,24.66
2019-01-18T21:31:26.498Z,24.63
2019-01-18T21:34:24.518Z,24.60
2019-01-18T21:42:43.896Z,24.64
2019-01-18T21:45:58.885Z,24.60
2019-01-18T21:52:05.980Z,24.59
2019-01-18T21:55:31.396Z,24.62
2019-01-18T21:58:31.724Z,24.60
2019-01-18T22:01:28.994Z,24.59
2019-01-18T22:04:40.181Z,24.66
2019-01-18T22:07:31.877Z,24.58
2019-01-18T22:10:53.008Z,24.61
2019-01-18T22:13:50.464Z,24.55
2019-01-18T22:16:59.713Z,24.60
2019-01-18T22:22:37.839Z,24.53
2019-01-18T22:25:43.890Z,24.55
2019-01-18T22:28:53.547Z,24.53
2019-01-18T22:31:49.931Z,24.53
2019-01-18T22:35:12.523Z,24.54
2019-01-18T22:37:56.068Z,24.57
2019-01-18T22:41:21.273Z,24.56
2019-01-18T22:44:49.565Z,24.51
2019-01-18T22:47:44.295Z,24.57
2019-01-18T22:50:34.855Z,24.55
2019-01-18T22:53:48.392Z,24.56
2019-01-18T22:56:33.569Z,24.55
2019-01-18T22:59:55.820Z,24.59
2019-01-18T23:02:54.394Z,24.58
2019-01-18T23:06:07.236Z,24.56
2019-01-18T23:09:10.250Z,24.54
2019-01-18T23:11:51.290Z,24.52
2019-01-18T23:15:12.827Z,24.52
2019-01-18T23:17:57.895Z,24.55
2019-01-18T23:21:17.271Z,24.56
2019-01-18T23:24:12.275Z,24.52
2019-01-18T23:27:31.134Z,24.49
2019-01-18T23:30:41.287Z,24.49
2019-01-18T23:33:38.457Z,24.49
2019-01-18T23:36:22.797Z,24.51
2019-01-18T23:39:30.306Z,24.49
2019-01-18T23:42:59.087Z,24.53
2019-01-18T23:46:12.339Z,24.55
2019-01-18T23:49:29.147Z,24.51
2019-01-18T23:53:01.015Z,24.47
2019-01-18T23:56:26.799Z,24.46
2019-01-18T23:59:41.195Z,24.49
